createdAt,value
2022-10-21T00:00:54.611Z,69.19
2022-10-21T00:03:21.669Z,69.85
2022-10-21T00:05:48.312Z,69.99
2022-10-21T00:08:15.323Z,69.53
2022-10-21T00:10:41.991Z,69.35
2022-10-21T00:13:08.611Z,69.83
2022-10-21T00:15:35.399Z,69.88
2022-10-21T00:18:01.873Z,70.50
2022-10-21T00:20:28.346Z,70.10
2022-10-21T00:22:54.843Z,70.47
2022-10-21T00:25:21.381Z,70.51
2022-10-21T00:27:47.849Z,71.05
2022-10-21T00:30:14.312Z,70.19
2022-10-21T00:32:40.971Z,71.64
2022-10-21T00:35:07.947Z,71.23
2022-10-21T00:37:34.376Z,71.84
2022-10-21T00:40:00.805Z,71.24
2022-10-21T00:42:35.291Z,71.47
2022-10-21T00:45:04.891Z,71.19
2022-10-21T00:47:42.917Z,70.27
2022-10-21T00:50:20.407Z,70.94
2022-10-21T00:52:46.910Z,71.03
2022-10-21T00:55:13.369Z,71.71
2022-10-21T00:57:40.422Z,71.09
2022-10-21T01:00:07.727Z,70.50
2022-10-21T01:02:34.263Z,70.63
2022-10-21T01:08:56.442Z,70.28
2022-10-21T01:11:25.057Z,70.33
2022-10-21T01:14:09.369Z,70.38
2022-10-21T01:16:50.909Z,71.71
2022-10-21T01:19:41.669Z,71.78
2022-10-21T01:22:36.003Z,71.53
2022-10-21T01:25:34.291Z,71.28
2022-10-21T01:28:28.373Z,71.61
2022-10-21T01:31:03.057Z,71.10
2022-10-21T01:34:07.711Z,71.12
2022-10-21T01:37:02.585Z,70.87
2022-10-21T01:39:41.468Z,70.45
2022-10-21T01:42:25.331Z,70.71
2022-10-21T01:45:00.644Z,70.43
2022-10-21T01:47:34.242Z,69.78
2022-10-21T01:50:07.442Z,70.72
2022-10-21T01:52:33.881Z,70.25
2022-10-21T01:55:08.661Z,70.87
2022-10-21T01:57:44.031Z,70.00
2022-10-21T02:00:10.953Z,69.88
2022-10-21T02:02:42.248Z,69.98
2022-10-21T02:05:15.226Z,70.25
2022-10-21T02:07:42.014Z,70.53
2022-10-21T02:10:08.799Z,69.92
2022-10-21T02:12:37.240Z,70.63
2022-10-21T02:15:07.947Z,70.40
2022-10-21T02:17:37.981Z,70.60
2022-10-21T02:20:09.205Z,70.19
2022-10-21T02:22:38.201Z,70.15
2022-10-21T02:25:08.008Z,70.52
2022-10-21T02:27:34.537Z,69.86
2022-10-21T02:30:01.997Z,69.94
2022-10-21T02:33:00.722Z,69.89
2022-10-21T02:36:03.937Z,70.04
2022-10-21T02:38:30.290Z,69.97
2022-10-21T02:41:06.478Z,69.73
2022-10-21T02:44:03.378Z,69.89
2022-10-21T02:46:41.929Z,69.45
2022-10-21T02:49:08.788Z,69.81
2022-10-21T02:51:35.550Z,70.31
2022-10-21T02:54:01.982Z,70.86
2022-10-21T02:58:59.750Z,69.70
2022-10-21T03:01:26.424Z,70.47
2022-10-21T03:03:52.912Z,69.82
2022-10-21T03:06:19.843Z,70.64
2022-10-21T03:08:46.338Z,70.12
2022-10-21T03:11:13.134Z,69.77
2022-10-21T03:13:39.539Z,69.68
2022-10-21T03:16:06.392Z,70.31
2022-10-21T03:18:32.891Z,70.02
2022-10-21T03:20:59.277Z,69.75
2022-10-21T03:23:25.711Z,69.41
2022-10-21T03:25:52.138Z,70.17
2022-10-21T03:28:18.589Z,70.52
2022-10-21T03:30:44.986Z,70.61
2022-10-21T03:33:11.408Z,70.61
2022-10-21T03:35:37.788Z,69.98
2022-10-21T03:38:04.186Z,69.43
2022-10-21T03:40:30.658Z,69.54
2022-10-21T03:42:57.869Z,70.05
2022-10-21T03:45:24.327Z,70.64
2022-10-21T03:47:51.989Z,70.66
2022-10-21T03:50:23.562Z,70.08
2022-10-21T03:52:52.190Z,71.33
2022-10-21T03:55:20.889Z,70.62
2022-10-21T03:57:48.178Z,71.92
2022-10-21T04:00:15.095Z,71.24
2022-10-21T04:02:41.914Z,72.63
2022-10-21T04:05:08.850Z,72.51
2022-10-21T04:07:35.308Z,73.22
2022-10-21T04:10:01.840Z,71.99
2022-10-21T04:12:28.235Z,71.43
2022-10-21T04:14:54.681Z,72.08
2022-10-21T04:17:21.131Z,71.71
2022-10-21T04:19:47.570Z,71.35
2022-10-21T04:22:13.990Z,70.85
2022-10-21T04:24:40.409Z,70.77
2022-10-21T04:27:06.837Z,71.48
2022-10-21T04:29:33.306Z,71.25
2022-10-21T04:31:59.728Z,71.60
2022-10-21T04:34:26.118Z,71.15
2022-10-21T04:36:52.577Z,71.10
2022-10-21T04:39:19.093Z,69.93
2022-10-21T04:41:45.753Z,70.90
2022-10-21T04:44:12.175Z,71.07
2022-10-21T04:46:38.556Z,70.51
2022-10-21T04:49:04.979Z,70.47
2022-10-21T04:54:02.767Z,71.07
2022-10-21T04:56:29.158Z,70.89
2022-10-21T04:58:55.569Z,71.20
2022-10-21T05:01:22.234Z,71.46
2022-10-21T05:03:48.675Z,71.61
2022-10-21T05:06:15.077Z,70.81
2022-10-21T05:08:41.500Z,70.15
2022-10-21T05:11:07.953Z,70.21
2022-10-21T05:13:34.353Z,70.78
2022-10-21T05:16:02.297Z,70.68
2022-10-21T05:18:29.580Z,69.86
2022-10-21T05:20:56.884Z,70.63
2022-10-21T05:23:24.040Z,71.96
2022-10-21T05:25:53.167Z,71.78
2022-10-21T05:28:20.355Z,72.07
2022-10-21T05:30:47.002Z,72.11
2022-10-21T05:33:13.575Z,71.90
2022-10-21T05:35:40.021Z,72.59
2022-10-21T05:38:06.773Z,72.10
2022-10-21T05:40:33.563Z,72.13
2022-10-21T05:43:00.088Z,71.29
2022-10-21T05:45:27.077Z,72.52
2022-10-21T05:47:53.511Z,72.51
2022-10-21T05:50:20.026Z,72.86
2022-10-21T05:52:46.407Z,72.85
2022-10-21T05:55:12.807Z,72.26
2022-10-21T05:57:39.333Z,73.01
2022-10-21T06:00:06.863Z,73.01
2022-10-21T06:02:33.565Z,72.83
2022-10-21T06:05:00.009Z,72.11
2022-10-21T06:07:26.468Z,72.25
2022-10-21T06:09:54.863Z,73.05
2022-10-21T06:12:22.022Z,72.80
2022-10-21T06:14:48.574Z,71.90
2022-10-21T06:17:14.961Z,71.78
2022-10-21T06:19:41.410Z,73.45
2022-10-21T06:22:07.819Z,72.58
2022-10-21T06:24:34.292Z,73.34
2022-10-21T06:27:00.936Z,74.31
2022-10-21T06:29:27.589Z,74.49
2022-10-21T06:31:54.042Z,73.99
2022-10-21T06:34:20.591Z,74.34
2022-10-21T06:36:47.004Z,74.54
2022-10-21T06:39:13.440Z,74.90
2022-10-21T06:41:39.862Z,74.98
2022-10-21T06:44:06.303Z,75.25
2022-10-21T06:46:32.771Z,75.46
2022-10-21T06:48:59.198Z,74.74
2022-10-21T06:51:25.815Z,74.70
2022-10-21T06:53:55.249Z,75.69
2022-10-21T06:56:22.775Z,75.26
2022-10-21T06:58:50.146Z,75.58
2022-10-21T07:01:34.445Z,75.28
2022-10-21T07:04:09.154Z,75.40
2022-10-21T07:06:35.975Z,74.55
2022-10-21T07:09:03.858Z,75.75
2022-10-21T07:11:30.404Z,74.81
2022-10-21T07:13:56.837Z,74.68
2022-10-21T07:16:28.891Z,75.05
2022-10-21T07:18:55.706Z,75.17
2022-10-21T07:21:24.365Z,74.56
2022-10-21T07:23:51.884Z,75.44
2022-10-21T07:26:20.315Z,74.56
2022-10-21T07:28:47.507Z,74.21
2022-10-21T07:31:15.611Z,74.67
2022-10-21T07:33:42.370Z,74.13
2022-10-21T07:36:11.411Z,74.19
2022-10-21T07:38:38.118Z,74.09
2022-10-21T07:41:05.465Z,73.63
2022-10-21T07:43:32.223Z,74.03
2022-10-21T07:46:01.824Z,73.58
2022-10-21T07:48:31.194Z,73.34
2022-10-21T07:51:11.149Z,73.80
2022-10-21T07:53:38.081Z,73.20
2022-10-21T07:56:13.560Z,73.28
2022-10-21T07:58:40.083Z,75.13
2022-10-21T08:01:08.996Z,73.86
2022-10-21T08:03:36.511Z,72.84
2022-10-21T08:06:03.800Z,73.65
2022-10-21T08:08:31.804Z,72.43
2022-10-21T08:10:58.474Z,71.68
2022-10-21T08:13:25.314Z,71.45
2022-10-21T08:15:54.315Z,72.36
2022-10-21T08:18:21.602Z,71.64
2022-10-21T08:20:49.195Z,71.75
2022-10-21T08:23:17.957Z,70.88
2022-10-21T08:25:55.330Z,69.17
2022-10-21T08:28:23.433Z,69.43
2022-10-21T08:30:50.036Z,68.49
2022-10-21T08:33:16.784Z,68.46
2022-10-21T08:35:43.659Z,69.26
2022-10-21T08:38:10.741Z,69.42
2022-10-21T08:40:41.685Z,69.08
2022-10-21T08:43:31.573Z,68.93
2022-10-21T08:46:09.883Z,67.93
2022-10-21T08:48:44.658Z,67.79
2022-10-21T08:51:24.037Z,67.19
2022-10-21T08:53:55.557Z,65.75
2022-10-21T08:58:52.579Z,67.22
2022-10-21T09:01:29.130Z,67.13
2022-10-21T09:04:15.690Z,66.91
2022-10-21T09:07:00.833Z,66.66
2022-10-21T09:09:51.898Z,67.20
2022-10-21T09:12:44.021Z,67.50
2022-10-21T09:15:25.817Z,67.28
2022-10-21T09:18:21.277Z,65.64
2022-10-21T09:21:05.859Z,60.90
2022-10-21T09:23:45.627Z,58.29
2022-10-21T09:26:44.680Z,56.36
2022-10-21T09:29:28.459Z,57.20
2022-10-21T09:32:26.050Z,55.18
2022-10-21T09:35:04.867Z,55.20
2022-10-21T09:37:43.342Z,56.14
2022-10-21T09:40:22.436Z,58.87
2022-10-21T09:42:51.542Z,59.61
2022-10-21T09:45:36.518Z,60.59
2022-10-21T09:48:05.899Z,60.29
2022-10-21T09:50:34.549Z,59.55
2022-10-21T09:53:16.213Z,60.07
2022-10-21T09:55:46.065Z,60.63
2022-10-21T09:59:08.148Z,59.79
2022-10-21T10:01:36.891Z,59.57
2022-10-21T10:04:20.558Z,57.79
2022-10-21T10:06:47.205Z,57.26
2022-10-21T10:09:32.826Z,55.65
2022-10-21T10:12:23.582Z,57.11
2022-10-21T10:14:50.382Z,57.95
2022-10-21T10:17:33.996Z,58.25
2022-10-21T10:20:13.963Z,57.87
2022-10-21T10:23:04.520Z,57.72
2022-10-21T10:25:34.213Z,58.06
2022-10-21T10:28:16.618Z,57.90
2022-10-21T10:30:42.999Z,57.95
2022-10-21T10:33:34.548Z,58.04
2022-10-21T10:36:09.462Z,58.17
2022-10-21T10:38:37.875Z,56.67
2022-10-21T10:41:35.678Z,55.46
2022-10-21T10:44:09.460Z,55.34
2022-10-21T10:46:38.120Z,54.83
2022-10-21T10:49:24.547Z,51.83
2022-10-21T10:52:07.415Z,51.34
2022-10-21T10:54:34.597Z,49.87
2022-10-21T10:57:04.075Z,49.23
2022-10-21T10:59:56.922Z,48.77
2022-10-21T11:02:48.574Z,52.88
2022-10-21T11:05:36.211Z,52.03
2022-10-21T11:08:21.787Z,50.83
2022-10-21T11:10:53.355Z,51.17
2022-10-21T11:13:22.599Z,52.37
2022-10-21T11:16:18.650Z,53.03
2022-10-21T11:18:56.673Z,54.73
2022-10-21T11:21:45.738Z,54.87
2022-10-21T11:24:42.649Z,54.08
2022-10-21T11:27:34.999Z,54.00
2022-10-21T11:30:17.613Z,54.46
2022-10-21T11:33:03.490Z,54.71
2022-10-21T11:35:35.927Z,55.17
2022-10-21T11:38:28.026Z,55.82
2022-10-21T11:43:56.589Z,55.77
2022-10-21T11:46:37.530Z,54.15
2022-10-21T11:49:28.987Z,56.76
2022-10-21T11:52:04.740Z,55.52
2022-10-21T11:54:44.551Z,55.87
2022-10-21T11:57:59.754Z,55.87
2022-10-21T12:00:27.637Z,55.83
2022-10-21T12:03:35.189Z,56.18
2022-10-21T12:06:03.835Z,55.35
2022-10-21T12:08:47.184Z,55.66
2022-10-21T12:11:21.384Z,55.47
2022-10-21T12:14:06.014Z,55.78
2022-10-21T12:16:35.463Z,56.21
2022-10-21T12:19:06.987Z,56.10
2022-10-21T12:21:39.107Z,57.78
2022-10-21T12:24:47.473Z,57.69
2022-10-21T12:27:39.451Z,58.65
2022-10-21T12:30:24.829Z,57.83
2022-10-21T12:33:17.788Z,58.88
2022-10-21T12:35:44.121Z,58.07
2022-10-21T12:38:21.503Z,58.18
2022-10-21T12:40:49.248Z,57.83
2022-10-21T12:43:22.286Z,56.87
2022-10-21T12:46:03.720Z,56.37
2022-10-21T12:49:22.816Z,56.26
2022-10-21T12:52:14.250Z,56.14
2022-10-21T12:54:40.603Z,56.27
2022-10-21T12:57:09.754Z,56.49
2022-10-21T12:59:37.578Z,55.89
2022-10-21T13:02:07.946Z,56.23
2022-10-21T13:04:34.434Z,55.94
2022-10-21T13:07:16.994Z,56.04
2022-10-21T13:10:05.969Z,56.56
2022-10-21T13:12:33.276Z,56.74
2022-10-21T13:15:06.200Z,56.09
2022-10-21T13:17:49.073Z,56.23
2022-10-21T13:20:15.460Z,56.29
2022-10-21T13:22:44.131Z,56.18
2022-10-21T13:25:16.768Z,56.34
2022-10-21T13:27:51.417Z,56.97
2022-10-21T13:30:30.330Z,56.92
2022-10-21T13:33:07.051Z,57.34
2022-10-21T13:35:43.447Z,57.02
2022-10-21T13:38:30.306Z,57.04
2022-10-21T13:41:22.833Z,57.31
2022-10-21T13:43:54.700Z,57.63
2022-10-21T13:46:23.907Z,57.36
2022-10-21T13:48:50.436Z,58.22
2022-10-21T13:51:25.854Z,58.62
2022-10-21T13:53:58.160Z,58.48
2022-10-21T13:56:33.805Z,58.66
2022-10-21T13:59:01.058Z,57.83
2022-10-21T14:01:30.711Z,59.19
2022-10-21T14:04:13.565Z,58.35
2022-10-21T14:06:45.458Z,58.62
2022-10-21T14:09:28.472Z,58.80
2022-10-21T14:12:03.250Z,59.08
2022-10-21T14:14:32.228Z,59.23
2022-10-21T14:17:07.978Z,59.07
2022-10-21T14:19:37.960Z,58.27
2022-10-21T14:24:43.859Z,59.31
2022-10-21T14:27:18.355Z,59.68
2022-10-21T14:29:45.543Z,60.76
2022-10-21T14:32:14.814Z,60.83
2022-10-21T14:35:13.791Z,60.50
2022-10-21T14:37:55.014Z,60.76
2022-10-21T14:40:40.276Z,61.13
2022-10-21T14:43:16.976Z,60.59
2022-10-21T14:45:52.354Z,61.87
2022-10-21T14:48:34.262Z,61.25
2022-10-21T14:51:05.842Z,61.43
2022-10-21T14:53:36.453Z,61.42
2022-10-21T14:56:06.651Z,61.56
2022-10-21T14:58:37.799Z,61.84
2022-10-21T15:01:13.954Z,61.32
2022-10-21T15:03:49.685Z,61.98
2022-10-21T15:06:32.678Z,62.21
2022-10-21T15:09:09.562Z,61.99
2022-10-21T15:11:39.586Z,61.79
2022-10-21T15:14:15.080Z,61.96
2022-10-21T15:16:59.941Z,62.58
2022-10-21T15:19:42.066Z,62.05
2022-10-21T15:22:24.442Z,62.45
2022-10-21T15:24:52.416Z,62.43
2022-10-21T15:27:42.186Z,61.80
2022-10-21T15:30:18.801Z,62.76
2022-10-21T15:32:46.502Z,62.57
2022-10-21T15:35:19.946Z,62.53
2022-10-21T15:37:50.886Z,62.48
2022-10-21T15:40:18.888Z,62.15
2022-10-21T15:42:46.262Z,61.88
2022-10-21T15:45:22.062Z,62.73
2022-10-21T15:47:53.992Z,62.49
2022-10-21T15:50:26.218Z,61.57
2022-10-21T15:52:53.271Z,61.65
2022-10-21T15:55:19.735Z,61.38
2022-10-21T15:57:46.134Z,62.07
2022-10-21T16:00:18.058Z,63.16
2022-10-21T16:02:46.192Z,63.70
2022-10-21T16:05:12.947Z,64.14
2022-10-21T16:07:40.343Z,63.44
2022-10-21T16:10:25.009Z,64.46
2022-10-21T16:12:52.162Z,64.99
2022-10-21T16:15:19.682Z,64.08
2022-10-21T16:17:49.205Z,63.26
2022-10-21T16:20:29.709Z,63.66
2022-10-21T16:23:00.511Z,63.70
2022-10-21T16:25:29.437Z,64.11
2022-10-21T16:27:56.636Z,64.64
2022-10-21T16:30:28.891Z,64.63
2022-10-21T16:32:57.088Z,65.36
2022-10-21T16:35:24.346Z,64.57
2022-10-21T16:37:51.047Z,65.18
2022-10-21T16:40:21.587Z,65.06
2022-10-21T16:42:49.256Z,66.10
2022-10-21T16:45:16.633Z,66.49
2022-10-21T16:47:48.215Z,65.95
2022-10-21T16:50:23.810Z,67.41
2022-10-21T16:52:50.308Z,68.14
2022-10-21T16:55:16.908Z,68.49
2022-10-21T16:57:43.625Z,68.20
2022-10-21T17:00:10.913Z,68.61
2022-10-21T17:02:40.142Z,69.13
2022-10-21T17:05:08.005Z,69.79
2022-10-21T17:07:34.629Z,70.61
2022-10-21T17:10:01.963Z,70.77
2022-10-21T17:12:28.724Z,70.85
2022-10-21T17:14:55.112Z,72.02
2022-10-21T17:17:22.267Z,72.69
2022-10-21T17:19:48.733Z,73.50
2022-10-21T17:22:19.503Z,72.98
2022-10-21T17:24:47.891Z,73.62
2022-10-21T17:27:18.730Z,73.88
2022-10-21T17:29:46.379Z,73.77
2022-10-21T17:32:13.049Z,74.38
2022-10-21T17:34:40.291Z,74.55
2022-10-21T17:37:08.531Z,74.57
2022-10-21T17:39:35.112Z,74.53
2022-10-21T17:42:02.078Z,75.32
2022-10-21T17:44:28.993Z,75.74
2022-10-21T17:46:55.513Z,75.94
2022-10-21T17:49:24.084Z,76.16
2022-10-21T17:51:50.976Z,76.82
2022-10-21T17:54:21.526Z,76.64
2022-10-21T17:56:51.797Z,76.45
2022-10-21T17:59:18.610Z,77.36
2022-10-21T18:01:45.224Z,77.06
2022-10-21T18:04:13.006Z,75.97
2022-10-21T18:06:39.958Z,76.29
2022-10-21T18:09:08.423Z,76.03
2022-10-21T18:11:36.416Z,75.63
2022-10-21T18:14:03.631Z,75.63
2022-10-21T18:16:30.126Z,76.03
2022-10-21T18:19:00.111Z,76.44
2022-10-21T18:21:29.342Z,77.32
2022-10-21T18:23:55.912Z,77.95
2022-10-21T18:26:28.336Z,77.52
2022-10-21T18:29:00.531Z,78.52
2022-10-21T18:31:29.881Z,78.63
2022-10-21T18:33:57.674Z,78.93
2022-10-21T18:36:25.129Z,79.06
2022-10-21T18:38:51.617Z,78.69
2022-10-21T18:41:21.016Z,78.31
2022-10-21T18:43:53.007Z,78.03
2022-10-21T18:46:20.627Z,77.27
2022-10-21T18:48:48.052Z,77.10
2022-10-21T18:51:18.958Z,77.37
2022-10-21T18:53:49.781Z,78.23
2022-10-21T18:56:20.092Z,77.41
2022-10-21T18:58:46.599Z,77.11
2022-10-21T19:01:15.099Z,76.93
2022-10-21T19:03:42.787Z,76.66
2022-10-21T19:06:29.882Z,76.58
2022-10-21T19:08:56.667Z,76.89
2022-10-21T19:11:23.222Z,76.73
2022-10-21T19:13:49.619Z,76.95
2022-10-21T19:16:16.037Z,77.93
2022-10-21T19:18:42.554Z,77.78
2022-10-21T19:21:08.942Z,78.43
2022-10-21T19:23:35.430Z,78.49
2022-10-21T19:26:07.155Z,78.37
2022-10-21T19:28:34.156Z,78.73
2022-10-21T19:31:00.998Z,79.13
2022-10-21T19:33:27.799Z,78.88
2022-10-21T19:35:54.204Z,78.68
2022-10-21T19:38:39.310Z,79.14
2022-10-21T19:41:09.889Z,79.15
2022-10-21T19:43:36.892Z,78.01
2022-10-21T19:46:08.028Z,77.91
2022-10-21T19:48:36.559Z,78.93
2022-10-21T19:51:03.690Z,77.94
2022-10-21T19:53:33.594Z,78.69
2022-10-21T19:56:04.790Z,78.16
2022-10-21T19:58:32.633Z,77.67
2022-10-21T20:01:04.976Z,77.69
2022-10-21T20:03:31.941Z,77.88
2022-10-21T20:05:58.378Z,77.82
2022-10-21T20:08:27.816Z,77.95
2022-10-21T20:11:05.987Z,77.33
2022-10-21T20:13:32.475Z,77.10
2022-10-21T20:16:00.056Z,77.02
2022-10-21T20:18:27.689Z,77.16
2022-10-21T20:20:55.073Z,77.49
2022-10-21T20:23:22.752Z,77.81
2022-10-21T20:25:58.180Z,78.39
2022-10-21T20:28:26.442Z,78.45
2022-10-21T20:31:03.922Z,78.25
2022-10-21T20:33:32.825Z,78.18
2022-10-21T20:36:04.438Z,77.43
2022-10-21T20:38:31.005Z,77.69
2022-10-21T20:41:06.096Z,77.65
2022-10-21T20:43:34.512Z,78.03
2022-10-21T20:46:02.523Z,77.62
2022-10-21T20:48:29.366Z,77.52
2022-10-21T20:51:04.615Z,77.57
2022-10-21T20:53:31.920Z,77.70
2022-10-21T20:55:59.622Z,77.81
2022-10-21T20:58:26.154Z,77.21
2022-10-21T21:00:52.725Z,77.19
2022-10-21T21:03:19.535Z,77.14
2022-10-21T21:05:46.080Z,77.77
2022-10-21T21:08:13.724Z,78.87
2022-10-21T21:10:40.323Z,79.83
2022-10-21T21:13:06.829Z,79.62
2022-10-21T21:15:33.285Z,80.53
2022-10-21T21:18:02.117Z,79.82
2022-10-21T21:20:28.583Z,79.69
2022-10-21T21:22:55.738Z,79.79
2022-10-21T21:25:22.138Z,79.87
2022-10-21T21:27:48.533Z,79.89
2022-10-21T21:30:14.970Z,80.09
2022-10-21T21:32:41.616Z,80.50
2022-10-21T21:35:08.765Z,80.63
2022-10-21T21:37:35.181Z,81.03
2022-10-21T21:40:01.644Z,80.41
2022-10-21T21:42:28.055Z,79.92
2022-10-21T21:44:54.477Z,78.96
2022-10-21T21:47:20.897Z,79.18
2022-10-21T21:49:47.267Z,78.99
2022-10-21T21:52:13.865Z,78.51
2022-10-21T21:54:40.285Z,78.43
2022-10-21T21:59:53.037Z,78.63
2022-10-21T22:02:19.503Z,78.65
2022-10-21T22:04:46.011Z,78.71
2022-10-21T22:07:12.755Z,79.22
2022-10-21T22:09:39.164Z,79.00
2022-10-21T22:12:05.762Z,78.36
2022-10-21T22:14:32.285Z,78.17
2022-10-21T22:16:58.682Z,78.37
2022-10-21T22:19:25.357Z,78.38
2022-10-21T22:21:51.773Z,79.00
2022-10-21T22:24:18.197Z,79.61
2022-10-21T22:26:44.654Z,79.97
2022-10-21T22:29:11.053Z,79.92
2022-10-21T22:31:37.489Z,79.09
2022-10-21T22:34:06.516Z,79.19
2022-10-21T22:36:35.585Z,78.86
2022-10-21T22:39:03.467Z,78.55
2022-10-21T22:41:29.915Z,79.05
2022-10-21T22:43:56.454Z,79.57
2022-10-21T22:46:34.308Z,79.71
2022-10-21T22:49:02.760Z,79.84
2022-10-21T22:51:29.215Z,79.74
2022-10-21T22:53:56.895Z,79.58
2022-10-21T22:56:25.096Z,78.82
2022-10-21T22:58:51.808Z,78.31
2022-10-21T23:01:18.364Z,78.70
2022-10-21T23:03:44.862Z,78.59
2022-10-21T23:06:11.321Z,78.56
2022-10-21T23:08:37.823Z,78.41
2022-10-21T23:11:04.459Z,78.00
2022-10-21T23:13:30.950Z,77.83
2022-10-21T23:15:57.425Z,77.91
2022-10-21T23:18:23.885Z,77.63
2022-10-21T23:20:50.266Z,77.82
2022-10-21T23:23:16.692Z,78.36
2022-10-21T23:25:43.164Z,78.33
2022-10-21T23:28:10.176Z,78.35
2022-10-21T23:30:37.588Z,77.61
2022-10-21T23:33:04.090Z,77.64
2022-10-21T23:35:30.565Z,77.36
2022-10-21T23:37:57.197Z,77.49
2022-10-21T23:40:23.586Z,77.23
2022-10-21T23:42:49.987Z,77.57
2022-10-21T23:45:16.769Z,77.40
2022-10-21T23:47:43.728Z,77.36
2022-10-21T23:50:10.771Z,77.36
2022-10-21T23:52:38.276Z,77.23
2022-10-21T23:55:06.513Z,77.35
2022-10-21T23:57:33.293Z,77.79
2022-10-21T23:59:59.923Z,77.76
